sensor_id;sensor_type;location;lat;lon;timestamp;P1;durP1;ratioP1;P2;durP2;ratioP2
47749;SDS011;49810;48.160;10.812;2023-10-08T00:02:24;8.82;;;4.43;;
47749;SDS011;49810;48.160;10.812;2023-10-08T00:04:57;9.02;;;4.60;;
47749;SDS011;49810;48.160;10.812;2023-10-08T00:07:28;8.65;;;4.38;;
47749;SDS011;49810;48.160;10.812;2023-10-08T00:09:56;10.23;;;4.32;;
47749;SDS011;49810;48.160;10.812;2023-10-08T00:12:23;9.52;;;4.20;;
47749;SDS011;49810;48.160;10.812;2023-10-08T00:14:51;7.97;;;4.25;;
47749;SDS011;49810;48.160;10.812;2023-10-08T00:17:20;9.75;;;3.95;;
47749;SDS011;49810;48.160;10.812;2023-10-08T00:19:48;10.25;;;4.50;;
47749;SDS011;49810;48.160;10.812;2023-10-08T00:22:19;8.60;;;3.80;;
47749;SDS011;49810;48.160;10.812;2023-10-08T00:24:49;8.65;;;4.30;;
47749;SDS011;49810;48.160;10.812;2023-10-08T00:27:24;12.25;;;4.82;;
47749;SDS011;49810;48.160;10.812;2023-10-08T00:29:52;9.73;;;4.57;;
47749;SDS011;49810;48.160;10.812;2023-10-08T00:32:20;11.50;;;4.63;;
47749;SDS011;49810;48.160;10.812;2023-10-08T00:34:48;8.32;;;3.83;;
47749;SDS011;49810;48.160;10.812;2023-10-08T00:37:16;8.40;;;3.78;;
47749;SDS011;49810;48.160;10.812;2023-10-08T00:39:44;8.68;;;4.30;;
47749;SDS011;49810;48.160;10.812;2023-10-08T00:42:13;7.60;;;3.95;;
47749;SDS011;49810;48.160;10.812;2023-10-08T00:44:41;7.97;;;4.13;;
47749;SDS011;49810;48.160;10.812;2023-10-08T00:47:18;10.05;;;4.20;;
47749;SDS011;49810;48.160;10.812;2023-10-08T00:49:48;9.75;;;4.32;;
47749;SDS011;49810;48.160;10.812;2023-10-08T00:52:21;9.32;;;4.30;;
47749;SDS011;49810;48.160;10.812;2023-10-08T00:55:04;8.27;;;3.90;;
47749;SDS011;49810;48.160;10.812;2023-10-08T00:57:42;8.38;;;4.30;;
47749;SDS011;49810;48.160;10.812;2023-10-08T01:00:14;9.60;;;4.38;;
47749;SDS011;49810;48.160;10.812;2023-10-08T01:02:49;8.43;;;3.83;;
47749;SDS011;49810;48.160;10.812;2023-10-08T01:05:27;8.77;;;4.00;;
47749;SDS011;49810;48.160;10.812;2023-10-08T01:08:09;9.93;;;3.95;;
47749;SDS011;49810;48.160;10.812;2023-10-08T01:10:40;9.98;;;3.97;;
47749;SDS011;49810;48.160;10.812;2023-10-08T01:13:11;10.18;;;4.05;;
47749;SDS011;49810;48.160;10.812;2023-10-08T01:15:41;8.68;;;3.88;;
47749;SDS011;49810;48.160;10.812;2023-10-08T01:18:11;10.80;;;5.03;;
47749;SDS011;49810;48.160;10.812;2023-10-08T01:20:44;9.55;;;4.43;;
47749;SDS011;49810;48.160;10.812;2023-10-08T01:23:20;8.65;;;4.28;;
47749;SDS011;49810;48.160;10.812;2023-10-08T01:25:49;9.45;;;4.80;;
47749;SDS011;49810;48.160;10.812;2023-10-08T01:28:19;12.45;;;4.43;;
47749;SDS011;49810;48.160;10.812;2023-10-08T01:30:52;8.45;;;4.25;;
47749;SDS011;49810;48.160;10.812;2023-10-08T01:33:21;9.93;;;4.78;;
47749;SDS011;49810;48.160;10.812;2023-10-08T01:35:50;9.23;;;4.35;;
47749;SDS011;49810;48.160;10.812;2023-10-08T01:38:19;8.10;;;4.28;;
47749;SDS011;49810;48.160;10.812;2023-10-08T01:40:50;9.88;;;4.32;;
47749;SDS011;49810;48.160;10.812;2023-10-08T01:43:18;9.57;;;4.07;;
47749;SDS011;49810;48.160;10.812;2023-10-08T01:45:47;9.57;;;4.40;;
47749;SDS011;49810;48.160;10.812;2023-10-08T01:48:18;10.23;;;4.38;;
47749;SDS011;49810;48.160;10.812;2023-10-08T01:50:47;13.73;;;4.50;;
47749;SDS011;49810;48.160;10.812;2023-10-08T01:53:15;10.75;;;3.95;;
47749;SDS011;49810;48.160;10.812;2023-10-08T01:55:44;11.05;;;4.38;;
47749;SDS011;49810;48.160;10.812;2023-10-08T01:58:16;10.68;;;5.10;;
47749;SDS011;49810;48.160;10.812;2023-10-08T02:00:44;9.70;;;4.07;;
47749;SDS011;49810;48.160;10.812;2023-10-08T02:03:15;9.20;;;4.22;;
47749;SDS011;49810;48.160;10.812;2023-10-08T02:05:45;8.65;;;3.95;;
47749;SDS011;49810;48.160;10.812;2023-10-08T02:08:14;8.80;;;3.88;;
47749;SDS011;49810;48.160;10.812;2023-10-08T02:10:45;7.75;;;3.90;;
47749;SDS011;49810;48.160;10.812;2023-10-08T02:13:14;10.93;;;4.20;;
47749;SDS011;49810;48.160;10.812;2023-10-08T02:15:43;8.85;;;4.15;;
47749;SDS011;49810;48.160;10.812;2023-10-08T02:18:11;9.82;;;4.30;;
47749;SDS011;49810;48.160;10.812;2023-10-08T02:20:40;11.27;;;4.65;;
47749;SDS011;49810;48.160;10.812;2023-10-08T02:23:08;8.98;;;3.80;;
47749;SDS011;49810;48.160;10.812;2023-10-08T02:25:38;10.45;;;4.57;;
47749;SDS011;49810;48.160;10.812;2023-10-08T02:28:08;7.72;;;4.03;;
47749;SDS011;49810;48.160;10.812;2023-10-08T02:30:36;10.02;;;4.63;;
47749;SDS011;49810;48.160;10.812;2023-10-08T02:33:05;9.73;;;3.70;;
47749;SDS011;49810;48.160;10.812;2023-10-08T02:35:41;9.18;;;3.95;;
47749;SDS011;49810;48.160;10.812;2023-10-08T02:38:10;8.48;;;3.88;;
47749;SDS011;49810;48.160;10.812;2023-10-08T02:40:39;8.07;;;3.55;;
47749;SDS011;49810;48.160;10.812;2023-10-08T02:43:13;8.18;;;3.58;;
47749;SDS011;49810;48.160;10.812;2023-10-08T02:45:42;8.30;;;3.55;;
47749;SDS011;49810;48.160;10.812;2023-10-08T02:48:14;9.07;;;4.13;;
47749;SDS011;49810;48.160;10.812;2023-10-08T02:50:43;8.70;;;3.63;;
47749;SDS011;49810;48.160;10.812;2023-10-08T02:53:12;8.95;;;3.63;;
47749;SDS011;49810;48.160;10.812;2023-10-08T02:55:45;8.18;;;3.85;;
47749;SDS011;49810;48.160;10.812;2023-10-08T02:58:15;11.13;;;4.60;;
47749;SDS011;49810;48.160;10.812;2023-10-08T03:00:46;8.40;;;3.83;;
47749;SDS011;49810;48.160;10.812;2023-10-08T03:03:14;8.82;;;4.20;;
47749;SDS011;49810;48.160;10.812;2023-10-08T03:05:44;9.02;;;4.18;;
47749;SDS011;49810;48.160;10.812;2023-10-08T03:08:13;10.38;;;3.92;;
47749;SDS011;49810;48.160;10.812;2023-10-08T03:10:46;9.25;;;4.00;;
47749;SDS011;49810;48.160;10.812;2023-10-08T03:13:16;8.15;;;3.80;;
47749;SDS011;49810;48.160;10.812;2023-10-08T03:15:46;8.25;;;3.58;;
47749;SDS011;49810;48.160;10.812;2023-10-08T03:18:24;8.57;;;3.80;;
47749;SDS011;49810;48.160;10.812;2023-10-08T03:20:52;9.80;;;3.72;;
47749;SDS011;49810;48.160;10.812;2023-10-08T03:23:20;11.15;;;4.38;;
47749;SDS011;49810;48.160;10.812;2023-10-08T03:25:52;10.25;;;4.13;;
47749;SDS011;49810;48.160;10.812;2023-10-08T03:28:27;6.88;;;3.13;;
47749;SDS011;49810;48.160;10.812;2023-10-08T03:30:56;9.70;;;4.15;;
47749;SDS011;49810;48.160;10.812;2023-10-08T03:33:31;9.40;;;3.83;;
47749;SDS011;49810;48.160;10.812;2023-10-08T03:36:02;9.55;;;4.00;;
47749;SDS011;49810;48.160;10.812;2023-10-08T03:38:36;8.00;;;3.53;;
47749;SDS011;49810;48.160;10.812;2023-10-08T03:41:17;9.35;;;3.75;;
47749;SDS011;49810;48.160;10.812;2023-10-08T03:43:48;8.13;;;3.78;;
47749;SDS011;49810;48.160;10.812;2023-10-08T03:46:22;10.55;;;4.10;;
47749;SDS011;49810;48.160;10.812;2023-10-08T03:48:51;9.73;;;3.80;;
47749;SDS011;49810;48.160;10.812;2023-10-08T03:51:19;9.95;;;4.38;;
47749;SDS011;49810;48.160;10.812;2023-10-08T03:53:48;7.70;;;3.85;;
47749;SDS011;49810;48.160;10.812;2023-10-08T03:56:42;8.38;;;3.50;;
47749;SDS011;49810;48.160;10.812;2023-10-08T03:59:14;10.82;;;4.10;;
47749;SDS011;49810;48.160;10.812;2023-10-08T04:01:47;10.93;;;4.28;;
47749;SDS011;49810;48.160;10.812;2023-10-08T04:04:21;10.32;;;4.63;;
47749;SDS011;49810;48.160;10.812;2023-10-08T04:06:57;8.20;;;3.97;;
47749;SDS011;49810;48.160;10.812;2023-10-08T04:09:45;10.40;;;4.00;;
47749;SDS011;49810;48.160;10.812;2023-10-08T04:12:14;12.10;;;4.10;;
47749;SDS011;49810;48.160;10.812;2023-10-08T04:14:46;8.38;;;3.50;;
47749;SDS011;49810;48.160;10.812;2023-10-08T04:17:14;10.30;;;4.13;;
47749;SDS011;49810;48.160;10.812;2023-10-08T04:19:49;8.02;;;3.55;;
47749;SDS011;49810;48.160;10.812;2023-10-08T04:22:17;8.23;;;3.50;;
47749;SDS011;49810;48.160;10.812;2023-10-08T04:24:45;12.15;;;3.60;;
47749;SDS011;49810;48.160;10.812;2023-10-08T04:27:14;10.75;;;3.95;;
47749;SDS011;49810;48.160;10.812;2023-10-08T04:29:41;11.68;;;3.85;;
47749;SDS011;49810;48.160;10.812;2023-10-08T04:32:11;9.07;;;3.45;;
47749;SDS011;49810;48.160;10.812;2023-10-08T04:34:47;11.45;;;4.10;;
47749;SDS011;49810;48.160;10.812;2023-10-08T04:37:16;8.13;;;3.47;;
47749;SDS011;49810;48.160;10.812;2023-10-08T04:39:47;10.68;;;3.97;;
47749;SDS011;49810;48.160;10.812;2023-10-08T04:42:21;8.00;;;3.35;;
47749;SDS011;49810;48.160;10.812;2023-10-08T04:44:53;9.45;;;4.05;;
47749;SDS011;49810;48.160;10.812;2023-10-08T04:47:22;9.18;;;3.55;;
47749;SDS011;49810;48.160;10.812;2023-10-08T04:49:59;9.20;;;3.50;;
47749;SDS011;49810;48.160;10.812;2023-10-08T04:52:31;10.27;;;4.03;;
47749;SDS011;49810;48.160;10.812;2023-10-08T04:55:01;8.93;;;3.80;;
47749;SDS011;49810;48.160;10.812;2023-10-08T04:57:39;11.18;;;3.40;;
47749;SDS011;49810;48.160;10.812;2023-10-08T05:00:10;13.90;;;4.00;;
47749;SDS011;49810;48.160;10.812;2023-10-08T05:02:43;11.30;;;3.97;;
47749;SDS011;49810;48.160;10.812;2023-10-08T05:05:17;10.30;;;3.72;;
47749;SDS011;49810;48.160;10.812;2023-10-08T05:07:56;9.60;;;3.85;;
47749;SDS011;49810;48.160;10.812;2023-10-08T05:10:43;9.07;;;4.07;;
47749;SDS011;49810;48.160;10.812;2023-10-08T05:13:51;12.35;;;4.00;;
47749;SDS011;49810;48.160;10.812;2023-10-08T05:16:33;9.75;;;3.60;;
47749;SDS011;49810;48.160;10.812;2023-10-08T05:19:11;12.02;;;3.75;;
47749;SDS011;49810;48.160;10.812;2023-10-08T05:22:04;7.35;;;3.33;;
47749;SDS011;49810;48.160;10.812;2023-10-08T05:24:45;8.63;;;3.45;;
47749;SDS011;49810;48.160;10.812;2023-10-08T05:27:31;11.30;;;3.88;;
47749;SDS011;49810;48.160;10.812;2023-10-08T05:30:23;11.75;;;3.47;;
47749;SDS011;49810;48.160;10.812;2023-10-08T05:32:55;10.80;;;3.70;;
47749;SDS011;49810;48.160;10.812;2023-10-08T05:35:53;10.10;;;3.95;;
47749;SDS011;49810;48.160;10.812;2023-10-08T05:38:36;7.93;;;3.10;;
47749;SDS011;49810;48.160;10.812;2023-10-08T05:41:17;9.20;;;3.58;;
47749;SDS011;49810;48.160;10.812;2023-10-08T05:44:05;9.10;;;3.78;;
47749;SDS011;49810;48.160;10.812;2023-10-08T05:46:51;9.57;;;3.47;;
47749;SDS011;49810;48.160;10.812;2023-10-08T05:49:33;9.15;;;3.15;;
47749;SDS011;49810;48.160;10.812;2023-10-08T05:52:22;9.50;;;3.45;;
47749;SDS011;49810;48.160;10.812;2023-10-08T05:54:52;9.88;;;3.97;;
47749;SDS011;49810;48.160;10.812;2023-10-08T05:57:42;8.70;;;3.33;;
47749;SDS011;49810;48.160;10.812;2023-10-08T06:00:19;9.85;;;4.00;;
47749;SDS011;49810;48.160;10.812;2023-10-08T06:03:04;8.60;;;3.55;;
47749;SDS011;49810;48.160;10.812;2023-10-08T06:05:59;12.18;;;3.97;;
47749;SDS011;49810;48.160;10.812;2023-10-08T06:08:50;10.07;;;3.78;;
47749;SDS011;49810;48.160;10.812;2023-10-08T06:11:33;10.05;;;3.78;;
47749;SDS011;49810;48.160;10.812;2023-10-08T06:14:23;13.30;;;4.03;;
47749;SDS011;49810;48.160;10.812;2023-10-08T06:17:03;13.63;;;4.00;;
47749;SDS011;49810;48.160;10.812;2023-10-08T06:19:40;12.25;;;4.00;;
47749;SDS011;49810;48.160;10.812;2023-10-08T06:22:09;11.82;;;3.90;;
47749;SDS011;49810;48.160;10.812;2023-10-08T06:24:38;11.18;;;4.20;;
47749;SDS011;49810;48.160;10.812;2023-10-08T06:27:06;11.27;;;3.63;;
47749;SDS011;49810;48.160;10.812;2023-10-08T06:29:35;12.52;;;4.25;;
47749;SDS011;49810;48.160;10.812;2023-10-08T06:32:03;10.13;;;3.53;;
47749;SDS011;49810;48.160;10.812;2023-10-08T06:34:31;10.55;;;4.03;;
47749;SDS011;49810;48.160;10.812;2023-10-08T06:36:59;11.80;;;4.07;;
47749;SDS011;49810;48.160;10.812;2023-10-08T06:39:28;12.38;;;3.90;;
47749;SDS011;49810;48.160;10.812;2023-10-08T06:42:15;12.23;;;4.18;;
47749;SDS011;49810;48.160;10.812;2023-10-08T06:44:44;11.18;;;3.80;;
47749;SDS011;49810;48.160;10.812;2023-10-08T06:47:13;10.07;;;4.13;;
47749;SDS011;49810;48.160;10.812;2023-10-08T06:49:43;14.07;;;4.43;;
47749;SDS011;49810;48.160;10.812;2023-10-08T06:52:11;11.90;;;3.75;;
47749;SDS011;49810;48.160;10.812;2023-10-08T06:54:39;15.48;;;4.40;;
47749;SDS011;49810;48.160;10.812;2023-10-08T06:57:07;8.60;;;3.45;;
47749;SDS011;49810;48.160;10.812;2023-10-08T06:59:42;11.02;;;3.92;;
47749;SDS011;49810;48.160;10.812;2023-10-08T07:02:10;15.57;;;4.30;;
47749;SDS011;49810;48.160;10.812;2023-10-08T07:04:38;12.52;;;4.07;;
47749;SDS011;49810;48.160;10.812;2023-10-08T07:07:08;11.95;;;4.18;;
47749;SDS011;49810;48.160;10.812;2023-10-08T07:09:36;11.30;;;3.88;;
47749;SDS011;49810;48.160;10.812;2023-10-08T07:12:04;13.13;;;3.90;;
47749;SDS011;49810;48.160;10.812;2023-10-08T07:14:33;9.20;;;3.83;;
47749;SDS011;49810;48.160;10.812;2023-10-08T07:17:03;13.27;;;4.22;;
47749;SDS011;49810;48.160;10.812;2023-10-08T07:19:35;10.85;;;3.72;;
47749;SDS011;49810;48.160;10.812;2023-10-08T07:22:07;12.98;;;4.07;;
47749;SDS011;49810;48.160;10.812;2023-10-08T07:24:45;11.05;;;3.90;;
47749;SDS011;49810;48.160;10.812;2023-10-08T07:27:17;14.02;;;3.92;;
47749;SDS011;49810;48.160;10.812;2023-10-08T07:29:48;8.52;;;3.60;;
47749;SDS011;49810;48.160;10.812;2023-10-08T07:32:17;13.35;;;3.83;;
47749;SDS011;49810;48.160;10.812;2023-10-08T07:34:46;10.63;;;3.65;;
47749;SDS011;49810;48.160;10.812;2023-10-08T07:37:14;13.82;;;4.13;;
47749;SDS011;49810;48.160;10.812;2023-10-08T07:39:42;12.57;;;4.22;;
47749;SDS011;49810;48.160;10.812;2023-10-08T07:42:13;13.77;;;3.85;;
47749;SDS011;49810;48.160;10.812;2023-10-08T07:44:41;14.05;;;4.05;;
47749;SDS011;49810;48.160;10.812;2023-10-08T07:47:10;16.90;;;4.25;;
47749;SDS011;49810;48.160;10.812;2023-10-08T07:49:40;14.35;;;4.43;;
47749;SDS011;49810;48.160;10.812;2023-10-08T07:52:10;12.63;;;3.78;;
47749;SDS011;49810;48.160;10.812;2023-10-08T07:54:42;14.43;;;4.50;;
47749;SDS011;49810;48.160;10.812;2023-10-08T07:57:10;15.52;;;4.22;;
47749;SDS011;49810;48.160;10.812;2023-10-08T07:59:39;12.52;;;4.20;;
47749;SDS011;49810;48.160;10.812;2023-10-08T08:02:09;15.60;;;4.30;;
47749;SDS011;49810;48.160;10.812;2023-10-08T08:04:38;14.18;;;4.30;;
47749;SDS011;49810;48.160;10.812;2023-10-08T08:07:08;15.93;;;5.90;;
47749;SDS011;49810;48.160;10.812;2023-10-08T08:09:43;15.70;;;4.57;;
47749;SDS011;49810;48.160;10.812;2023-10-08T08:12:17;12.65;;;4.20;;
47749;SDS011;49810;48.160;10.812;2023-10-08T08:14:45;16.08;;;4.43;;
47749;SDS011;49810;48.160;10.812;2023-10-08T08:17:14;11.35;;;4.03;;
47749;SDS011;49810;48.160;10.812;2023-10-08T08:19:43;17.52;;;4.60;;
47749;SDS011;49810;48.160;10.812;2023-10-08T08:22:15;17.98;;;4.75;;
47749;SDS011;49810;48.160;10.812;2023-10-08T08:24:48;15.07;;;4.85;;
47749;SDS011;49810;48.160;10.812;2023-10-08T08:27:23;11.32;;;4.03;;
47749;SDS011;49810;48.160;10.812;2023-10-08T08:29:57;12.27;;;3.63;;
47749;SDS011;49810;48.160;10.812;2023-10-08T08:32:36;12.38;;;3.97;;
47749;SDS011;49810;48.160;10.812;2023-10-08T08:35:06;14.00;;;4.47;;
47749;SDS011;49810;48.160;10.812;2023-10-08T08:37:37;14.38;;;4.40;;
47749;SDS011;49810;48.160;10.812;2023-10-08T08:40:07;11.35;;;3.60;;
47749;SDS011;49810;48.160;10.812;2023-10-08T08:42:36;13.75;;;4.25;;
47749;SDS011;49810;48.160;10.812;2023-10-08T08:45:05;12.05;;;3.85;;
47749;SDS011;49810;48.160;10.812;2023-10-08T08:47:35;14.55;;;4.40;;
47749;SDS011;49810;48.160;10.812;2023-10-08T08:50:03;12.68;;;3.78;;
47749;SDS011;49810;48.160;10.812;2023-10-08T08:52:36;15.27;;;4.28;;
47749;SDS011;49810;48.160;10.812;2023-10-08T08:55:05;17.70;;;4.32;;
47749;SDS011;49810;48.160;10.812;2023-10-08T08:57:36;24.40;;;4.93;;
47749;SDS011;49810;48.160;10.812;2023-10-08T09:00:06;15.68;;;4.20;;
47749;SDS011;49810;48.160;10.812;2023-10-08T09:02:37;19.13;;;4.55;;
47749;SDS011;49810;48.160;10.812;2023-10-08T09:05:06;18.58;;;4.75;;
47749;SDS011;49810;48.160;10.812;2023-10-08T09:07:56;20.90;;;4.40;;
47749;SDS011;49810;48.160;10.812;2023-10-08T09:10:25;14.20;;;4.35;;
47749;SDS011;49810;48.160;10.812;2023-10-08T09:12:55;12.98;;;3.78;;
47749;SDS011;49810;48.160;10.812;2023-10-08T09:15:25;11.85;;;4.10;;
47749;SDS011;49810;48.160;10.812;2023-10-08T09:17:55;11.30;;;3.67;;
47749;SDS011;49810;48.160;10.812;2023-10-08T09:20:24;13.43;;;3.67;;
47749;SDS011;49810;48.160;10.812;2023-10-08T09:23:06;25.30;;;5.20;;
47749;SDS011;49810;48.160;10.812;2023-10-08T09:25:39;16.73;;;4.15;;
47749;SDS011;49810;48.160;10.812;2023-10-08T09:28:07;15.93;;;4.60;;
47749;SDS011;49810;48.160;10.812;2023-10-08T09:30:35;14.15;;;4.00;;
47749;SDS011;49810;48.160;10.812;2023-10-08T09:33:05;19.73;;;4.45;;
47749;SDS011;49810;48.160;10.812;2023-10-08T09:35:33;16.02;;;4.70;;
47749;SDS011;49810;48.160;10.812;2023-10-08T09:38:02;14.88;;;4.32;;
47749;SDS011;49810;48.160;10.812;2023-10-08T09:40:31;16.88;;;4.22;;
47749;SDS011;49810;48.160;10.812;2023-10-08T09:42:59;20.30;;;4.97;;
47749;SDS011;49810;48.160;10.812;2023-10-08T09:45:30;23.35;;;4.45;;
47749;SDS011;49810;48.160;10.812;2023-10-08T09:47:58;19.27;;;4.40;;
47749;SDS011;49810;48.160;10.812;2023-10-08T09:50:31;14.95;;;4.80;;
47749;SDS011;49810;48.160;10.812;2023-10-08T09:53:00;18.05;;;5.10;;
47749;SDS011;49810;48.160;10.812;2023-10-08T09:55:32;16.85;;;4.22;;
47749;SDS011;49810;48.160;10.812;2023-10-08T09:57:59;18.88;;;5.07;;
47749;SDS011;49810;48.160;10.812;2023-10-08T10:00:27;19.83;;;5.22;;
47749;SDS011;49810;48.160;10.812;2023-10-08T10:02:58;19.85;;;6.32;;
47749;SDS011;49810;48.160;10.812;2023-10-08T10:05:28;24.92;;;6.30;;
47749;SDS011;49810;48.160;10.812;2023-10-08T10:07:57;27.27;;;8.10;;
47749;SDS011;49810;48.160;10.812;2023-10-08T10:10:25;20.50;;;7.40;;
47749;SDS011;49810;48.160;10.812;2023-10-08T10:12:58;23.27;;;6.88;;
47749;SDS011;49810;48.160;10.812;2023-10-08T10:15:26;19.27;;;4.38;;
47749;SDS011;49810;48.160;10.812;2023-10-08T10:17:58;14.00;;;3.90;;
47749;SDS011;49810;48.160;10.812;2023-10-08T10:20:26;20.60;;;4.15;;
47749;SDS011;49810;48.160;10.812;2023-10-08T10:22:54;16.20;;;4.38;;
47749;SDS011;49810;48.160;10.812;2023-10-08T10:25:33;20.38;;;4.00;;
47749;SDS011;49810;48.160;10.812;2023-10-08T10:30:51;13.00;;;4.22;;
47749;SDS011;49810;48.160;10.812;2023-10-08T10:33:19;19.83;;;4.75;;
47749;SDS011;49810;48.160;10.812;2023-10-08T10:35:51;16.73;;;4.78;;
47749;SDS011;49810;48.160;10.812;2023-10-08T10:38:19;19.00;;;4.68;;
47749;SDS011;49810;48.160;10.812;2023-10-08T10:40:49;24.70;;;4.45;;
47749;SDS011;49810;48.160;10.812;2023-10-08T10:43:23;16.38;;;4.15;;
47749;SDS011;49810;48.160;10.812;2023-10-08T10:46:00;18.48;;;5.03;;
47749;SDS011;49810;48.160;10.812;2023-10-08T10:48:51;19.50;;;4.60;;
47749;SDS011;49810;48.160;10.812;2023-10-08T10:51:32;25.85;;;4.97;;
47749;SDS011;49810;48.160;10.812;2023-10-08T10:54:00;19.23;;;3.85;;
47749;SDS011;49810;48.160;10.812;2023-10-08T10:56:34;25.92;;;4.30;;
47749;SDS011;49810;48.160;10.812;2023-10-08T10:59:07;22.25;;;4.85;;
47749;SDS011;49810;48.160;10.812;2023-10-08T11:01:47;17.65;;;4.07;;
47749;SDS011;49810;48.160;10.812;2023-10-08T11:04:18;16.15;;;4.43;;
47749;SDS011;49810;48.160;10.812;2023-10-08T11:06:55;14.15;;;4.32;;
47749;SDS011;49810;48.160;10.812;2023-10-08T11:09:25;15.38;;;4.38;;
47749;SDS011;49810;48.160;10.812;2023-10-08T11:12:02;20.30;;;4.38;;
47749;SDS011;49810;48.160;10.812;2023-10-08T11:14:38;18.35;;;4.55;;
47749;SDS011;49810;48.160;10.812;2023-10-08T11:17:13;22.70;;;4.53;;
47749;SDS011;49810;48.160;10.812;2023-10-08T11:19:42;19.80;;;5.28;;
47749;SDS011;49810;48.160;10.812;2023-10-08T11:22:12;22.75;;;4.93;;
47749;SDS011;49810;48.160;10.812;2023-10-08T11:24:43;18.60;;;4.72;;
47749;SDS011;49810;48.160;10.812;2023-10-08T11:27:15;26.23;;;5.05;;
47749;SDS011;49810;48.160;10.812;2023-10-08T11:29:44;22.73;;;4.47;;
47749;SDS011;49810;48.160;10.812;2023-10-08T11:32:14;24.50;;;4.35;;
47749;SDS011;49810;48.160;10.812;2023-10-08T11:34:45;22.02;;;4.72;;
47749;SDS011;49810;48.160;10.812;2023-10-08T11:37:25;18.58;;;4.50;;
47749;SDS011;49810;48.160;10.812;2023-10-08T11:39:53;18.70;;;4.43;;
47749;SDS011;49810;48.160;10.812;2023-10-08T11:42:25;18.45;;;4.75;;
47749;SDS011;49810;48.160;10.812;2023-10-08T11:45:11;19.60;;;4.88;;
47749;SDS011;49810;48.160;10.812;2023-10-08T11:47:53;14.68;;;3.92;;
47749;SDS011;49810;48.160;10.812;2023-10-08T11:50:24;34.25;;;5.20;;
47749;SDS011;49810;48.160;10.812;2023-10-08T11:52:58;30.45;;;4.88;;
47749;SDS011;49810;48.160;10.812;2023-10-08T11:55:29;17.67;;;3.95;;
47749;SDS011;49810;48.160;10.812;2023-10-08T11:58:01;25.33;;;4.88;;
47749;SDS011;49810;48.160;10.812;2023-10-08T12:00:36;26.38;;;5.40;;
47749;SDS011;49810;48.160;10.812;2023-10-08T12:03:12;25.85;;;4.40;;
47749;SDS011;49810;48.160;10.812;2023-10-08T12:05:45;21.45;;;5.00;;
47749;SDS011;49810;48.160;10.812;2023-10-08T12:08:16;29.13;;;5.32;;
47749;SDS011;49810;48.160;10.812;2023-10-08T12:10:44;20.50;;;4.63;;
47749;SDS011;49810;48.160;10.812;2023-10-08T12:13:13;28.15;;;4.97;;
47749;SDS011;49810;48.160;10.812;2023-10-08T12:15:45;25.38;;;4.68;;
47749;SDS011;49810;48.160;10.812;2023-10-08T12:18:15;18.08;;;4.88;;
47749;SDS011;49810;48.160;10.812;2023-10-08T12:20:51;15.93;;;4.50;;
47749;SDS011;49810;48.160;10.812;2023-10-08T12:23:20;16.85;;;4.25;;
47749;SDS011;49810;48.160;10.812;2023-10-08T12:25:52;22.33;;;4.65;;
47749;SDS011;49810;48.160;10.812;2023-10-08T12:28:22;20.85;;;4.47;;
47749;SDS011;49810;48.160;10.812;2023-10-08T12:30:51;21.70;;;4.03;;
47749;SDS011;49810;48.160;10.812;2023-10-08T12:33:21;20.50;;;4.70;;
47749;SDS011;49810;48.160;10.812;2023-10-08T12:35:51;22.13;;;4.80;;
47749;SDS011;49810;48.160;10.812;2023-10-08T12:38:20;21.48;;;5.03;;
47749;SDS011;49810;48.160;10.812;2023-10-08T12:40:49;19.55;;;5.50;;
47749;SDS011;49810;48.160;10.812;2023-10-08T12:43:19;34.53;;;5.07;;
47749;SDS011;49810;48.160;10.812;2023-10-08T12:45:48;18.83;;;4.20;;
47749;SDS011;49810;48.160;10.812;2023-10-08T12:48:24;16.13;;;4.25;;
47749;SDS011;49810;48.160;10.812;2023-10-08T12:50:53;24.80;;;4.80;;
47749;SDS011;49810;48.160;10.812;2023-10-08T12:53:24;27.63;;;5.45;;
47749;SDS011;49810;48.160;10.812;2023-10-08T12:56:00;19.42;;;4.63;;
47749;SDS011;49810;48.160;10.812;2023-10-08T12:58:34;20.85;;;4.32;;
47749;SDS011;49810;48.160;10.812;2023-10-08T13:01:08;27.38;;;4.97;;
47749;SDS011;49810;48.160;10.812;2023-10-08T13:03:38;27.40;;;4.80;;
47749;SDS011;49810;48.160;10.812;2023-10-08T13:06:09;30.35;;;5.47;;
47749;SDS011;49810;48.160;10.812;2023-10-08T13:08:41;15.40;;;4.07;;
47749;SDS011;49810;48.160;10.812;2023-10-08T13:11:09;19.58;;;4.53;;
47749;SDS011;49810;48.160;10.812;2023-10-08T13:13:37;17.92;;;4.57;;
47749;SDS011;49810;48.160;10.812;2023-10-08T13:16:05;26.63;;;4.75;;
47749;SDS011;49810;48.160;10.812;2023-10-08T13:18:34;28.70;;;4.88;;
47749;SDS011;49810;48.160;10.812;2023-10-08T13:21:05;18.63;;;4.55;;
47749;SDS011;49810;48.160;10.812;2023-10-08T13:23:34;15.93;;;4.28;;
47749;SDS011;49810;48.160;10.812;2023-10-08T13:26:03;19.80;;;4.38;;
47749;SDS011;49810;48.160;10.812;2023-10-08T13:28:34;15.30;;;4.28;;
47749;SDS011;49810;48.160;10.812;2023-10-08T13:31:02;17.48;;;4.05;;
47749;SDS011;49810;48.160;10.812;2023-10-08T13:36:09;15.88;;;4.22;;
47749;SDS011;49810;48.160;10.812;2023-10-08T13:38:45;20.42;;;4.70;;
47749;SDS011;49810;48.160;10.812;2023-10-08T13:41:14;19.02;;;3.70;;
47749;SDS011;49810;48.160;10.812;2023-10-08T13:43:45;16.45;;;5.18;;
47749;SDS011;49810;48.160;10.812;2023-10-08T13:46:14;16.80;;;4.80;;
47749;SDS011;49810;48.160;10.812;2023-10-08T13:48:42;13.75;;;4.07;;
47749;SDS011;49810;48.160;10.812;2023-10-08T13:51:15;17.08;;;4.70;;
47749;SDS011;49810;48.160;10.812;2023-10-08T13:53:50;18.40;;;4.63;;
47749;SDS011;49810;48.160;10.812;2023-10-08T13:56:20;17.38;;;5.47;;
47749;SDS011;49810;48.160;10.812;2023-10-08T13:58:51;19.15;;;5.93;;
47749;SDS011;49810;48.160;10.812;2023-10-08T14:01:30;17.50;;;4.38;;
47749;SDS011;49810;48.160;10.812;2023-10-08T14:04:01;27.20;;;6.35;;
47749;SDS011;49810;48.160;10.812;2023-10-08T14:06:35;16.83;;;4.40;;
47749;SDS011;49810;48.160;10.812;2023-10-08T14:09:03;14.88;;;4.40;;
47749;SDS011;49810;48.160;10.812;2023-10-08T14:11:34;19.52;;;4.35;;
47749;SDS011;49810;48.160;10.812;2023-10-08T14:14:03;16.08;;;4.15;;
47749;SDS011;49810;48.160;10.812;2023-10-08T14:16:34;19.05;;;4.88;;
47749;SDS011;49810;48.160;10.812;2023-10-08T14:19:02;19.23;;;4.40;;
47749;SDS011;49810;48.160;10.812;2023-10-08T14:21:32;15.65;;;4.53;;
47749;SDS011;49810;48.160;10.812;2023-10-08T14:24:06;25.25;;;4.40;;
47749;SDS011;49810;48.160;10.812;2023-10-08T14:26:42;23.65;;;4.70;;
47749;SDS011;49810;48.160;10.812;2023-10-08T14:29:10;22.83;;;4.90;;
47749;SDS011;49810;48.160;10.812;2023-10-08T14:31:41;25.25;;;4.00;;
47749;SDS011;49810;48.160;10.812;2023-10-08T14:34:11;33.40;;;5.60;;
47749;SDS011;49810;48.160;10.812;2023-10-08T14:36:55;27.98;;;4.70;;
47749;SDS011;49810;48.160;10.812;2023-10-08T14:39:42;28.33;;;6.22;;
47749;SDS011;49810;48.160;10.812;2023-10-08T14:42:27;20.38;;;3.80;;
47749;SDS011;49810;48.160;10.812;2023-10-08T14:45:13;22.02;;;5.55;;
47749;SDS011;49810;48.160;10.812;2023-10-08T14:47:45;34.00;;;6.82;;
47749;SDS011;49810;48.160;10.812;2023-10-08T14:50:16;27.33;;;7.10;;
47749;SDS011;49810;48.160;10.812;2023-10-08T14:52:44;28.45;;;6.97;;
47749;SDS011;49810;48.160;10.812;2023-10-08T14:55:14;24.55;;;5.70;;
47749;SDS011;49810;48.160;10.812;2023-10-08T14:57:42;29.88;;;5.85;;
47749;SDS011;49810;48.160;10.812;2023-10-08T15:00:10;20.52;;;5.20;;
47749;SDS011;49810;48.160;10.812;2023-10-08T15:02:38;29.48;;;5.80;;